Time;durP1;ratioP1;P1;durP2;ratioP2;P2;SDS_P1;SDS_P2;PMS_P1;PMS_P2;Temp;Humidity;BMP_temperature;BMP_pressure;BME280_temperature;BME280_humidity;BME280_pressure;Samples;Min_cycle;Max_cycle;Signal;HPM_P1;HPM_P2
2022/12/09 00:01:28;;;;;;;11.90;9.50;;;;;;;-2.06;100.00;99336.84;5066681;28;20175;-75
2022/12/09 00:03:54;;;;;;;9.90;8.50;;;;;;;-2.07;100.00;99337.66;5062844;28;20210;-76
2022/12/09 00:06:22;;;;;;;10.17;9.10;;;;;;;-2.09;100.00;99324.06;5070312;28;20194;-74
2022/12/09 00:08:48;;;;;;;11.17;9.33;;;;;;;-2.11;100.00;99324.00;5058825;28;20296;-75
2022/12/09 00:11:14;;;;;;;9.83;8.93;;;;;;;-2.13;100.00;99324.78;5045154;28;20245;-74
2022/12/09 00:13:39;;;;;;;9.73;8.67;;;;;;;-2.15;100.00;99322.25;5048779;28;20211;-74
2022/12/09 00:16:10;;;;;;;9.30;8.30;;;;;;;-2.18;100.00;99309.47;5065436;28;20191;-74
2022/12/09 00:18:35;;;;;;;9.33;8.27;;;;;;;-2.20;100.00;99311.97;5062171;28;20187;-74
2022/12/09 00:21:21;;;;;;;8.73;7.83;;;;;;;-2.21;100.00;99319.53;5061994;28;20247;-73
2022/12/09 00:23:47;;;;;;;9.13;8.23;;;;;;;-2.24;100.00;99320.31;5059677;28;20219;-74
2022/12/09 00:26:14;;;;;;;9.77;8.07;;;;;;;-2.27;100.00;99314.31;5053435;28;20261;-75
2022/12/09 00:28:40;;;;;;;10.30;9.27;;;;;;;-2.30;100.00;99313.41;5059735;28;20208;-74
2022/12/09 00:31:06;;;;;;;9.93;8.77;;;;;;;-2.32;100.00;99304.91;5062076;28;20198;-74
2022/12/09 00:33:33;;;;;;;13.03;9.57;;;;;;;-2.35;100.00;99309.88;5060312;28;20210;-74
2022/12/09 00:36:04;;;;;;;9.97;8.97;;;;;;;-2.37;100.00;99311.50;5045296;28;20216;-74
2022/12/09 00:38:30;;;;;;;10.60;9.33;;;;;;;-2.38;100.00;99314.84;5058767;28;20195;-73
2022/12/09 00:40:55;;;;;;;11.40;9.37;;;;;;;-2.40;100.00;99308.03;5074620;28;20564;-74
2022/12/09 00:43:20;;;;;;;10.20;9.00;;;;;;;-2.42;100.00;99307.13;5061534;28;20199;-73
2022/12/09 00:45:45;;;;;;;12.50;9.30;;;;;;;-2.43;100.00;99308.81;5064927;28;20643;-74
2022/12/09 00:48:11;;;;;;;11.37;9.53;;;;;;;-2.37;100.00;99310.66;5066104;28;20256;-74
2022/12/09 00:50:36;;;;;;;10.77;9.23;;;;;;;-2.30;100.00;99297.31;5069970;28;20190;-73
2022/12/09 00:53:01;;;;;;;11.40;9.33;;;;;;;-2.23;100.00;99301.75;5047819;28;20287;-73
2022/12/09 00:55:27;;;;;;;9.67;8.27;;;;;;;-2.16;100.00;99300.25;5066103;28;20279;-75
2022/12/09 00:57:52;;;;;;;12.50;9.30;;;;;;;-2.09;100.00;99311.41;5063414;28;20201;-73
2022/12/09 01:00:18;;;;;;;9.80;8.77;;;;;;;-2.05;100.00;99296.28;5065288;28;20184;-74
2022/12/09 01:02:43;;;;;;;9.87;8.67;;;;;;;-2.00;100.00;99298.94;5063709;28;20226;-74
2022/12/09 01:05:08;;;;;;;10.20;8.27;;;;;;;-1.98;100.00;99299.84;5047551;28;20223;-74
2022/12/09 01:07:36;;;;;;;12.80;7.53;;;;;;;-1.97;100.00;99299.03;5064983;28;20210;-74
2022/12/09 01:10:03;;;;;;;12.10;8.20;;;;;;;-1.96;100.00;99297.34;5065972;28;20299;-74
2022/12/09 01:12:28;;;;;;;9.77;8.27;;;;;;;-1.93;100.00;99303.38;5067754;28;20282;-74
2022/12/09 01:14:53;;;;;;;11.37;7.73;;;;;;;-1.90;100.00;99303.44;5065059;28;20200;-73
2022/12/09 01:17:19;;;;;;;11.73;7.87;;;;;;;-1.87;100.00;99295.91;5064980;28;20661;-74
2022/12/09 01:19:45;;;;;;;10.77;8.13;;;;;;;-1.85;100.00;99298.50;5058932;28;20195;-73
2022/12/09 01:22:10;;;;;;;8.23;7.43;;;;;;;-1.85;100.00;99296.81;5077602;28;20217;-74
2022/12/09 01:24:35;;;;;;;12.80;8.57;;;;;;;-1.83;100.00;99299.41;5057070;28;20329;-74
2022/12/09 01:27:01;;;;;;;14.53;8.70;;;;;;;-1.83;100.00;99296.84;5058083;28;20195;-73
2022/12/09 01:29:26;;;;;;;15.33;9.53;;;;;;;-1.77;100.00;99301.22;5059499;28;20246;-73
2022/12/09 01:31:53;;;;;;;14.53;9.83;;;;;;;-1.77;100.00;99302.06;5057366;28;20711;-73
2022/12/09 01:34:19;;;;;;;12.37;9.73;;;;;;;-1.73;100.00;99300.44;5042856;28;20194;-73
2022/12/09 01:36:46;;;;;;;15.73;9.83;;;;;;;-1.71;100.00;99292.09;5059830;28;20203;-74
2022/12/09 01:39:11;;;;;;;15.47;9.57;;;;;;;-1.70;100.00;99286.19;5064805;28;20805;-73
2022/12/09 01:41:37;;;;;;;15.27;9.40;;;;;;;-1.69;100.00;99292.97;5065737;28;20200;-73
2022/12/09 01:44:16;;;;;;;16.80;9.13;;;;;;;-1.70;100.00;99298.88;5059762;28;21070;-73
2022/12/09 01:46:42;;;;;;;13.60;9.87;;;;;;;-1.70;100.00;99293.81;5061107;28;20580;-73
2022/12/09 01:49:13;;;;;;;16.13;10.17;;;;;;;-1.71;100.00;99287.00;5058467;28;20247;-74
2022/12/09 01:51:39;;;;;;;13.83;10.77;;;;;;;-1.69;100.00;99284.50;5058921;28;20657;-74
2022/12/09 01:54:05;;;;;;;12.53;11.10;;;;;;;-1.70;100.00;99277.69;5061385;28;20270;-74
2022/12/09 01:56:36;;;;;;;13.50;10.23;;;;;;;-1.69;100.00;99279.41;5062038;28;20191;-73
2022/12/09 01:59:08;;;;;;;17.53;9.97;;;;;;;-1.72;100.00;99274.28;5058875;28;21129;-74
2022/12/09 02:01:34;;;;;;;13.20;9.40;;;;;;;-1.78;100.00;99267.38;5055313;28;20196;-74
2022/12/09 02:04:00;;;;;;;12.77;9.07;;;;;;;-1.87;100.00;99257.00;5074201;28;20188;-74
2022/12/09 02:06:25;;;;;;;10.80;9.20;;;;;;;-1.93;100.00;99254.31;5052196;28;20223;-73
2022/12/09 02:08:52;;;;;;;11.37;9.07;;;;;;;-2.00;100.00;99248.22;5058481;28;20223;-73
2022/12/09 02:11:38;;;;;;;10.57;8.97;;;;;;;-2.10;100.00;99256.44;5060455;28;20276;-74
2022/12/09 02:14:15;;;;;;;10.03;8.80;;;;;;;-2.21;100.00;99249.44;5056162;28;20247;-73
2022/12/09 02:16:57;;;;;;;9.57;8.33;;;;;;;-2.31;100.00;99234.78;5056809;28;20855;-74
2022/12/09 02:19:33;;;;;;;9.07;8.17;;;;;;;-2.42;100.00;99233.66;5060395;28;20231;-74
2022/12/09 02:21:59;;;;;;;9.00;8.10;;;;;;;-2.51;100.00;99235.13;5052291;28;20638;-73
2022/12/09 02:24:38;;;;;;;9.50;8.50;;;;;;;-2.56;100.00;99236.69;5053985;28;20179;-73
2022/12/09 02:27:15;;;;;;;9.63;7.93;;;;;;;-2.59;100.00;99235.75;5093192;28;20175;-75
2022/12/09 02:29:53;;;;;;;9.27;8.13;;;;;;;-2.66;100.00;99230.50;5082839;28;20195;-73
2022/12/09 02:32:35;;;;;;;8.67;7.80;;;;;;;-2.71;100.00;99238.78;5081819;28;20925;-74
2022/12/09 02:35:30;;;;;;;8.87;7.97;;;;;;;-2.77;100.00;99231.88;5046312;28;20615;-73
2022/12/09 02:37:59;;;;;;;9.23;8.23;;;;;;;-2.83;100.00;99229.16;5033593;28;20199;-74
2022/12/09 02:40:28;;;;;;;9.70;8.70;;;;;;;-2.91;100.00;99227.28;5058218;28;20214;-73
2022/12/09 02:42:55;;;;;;;8.60;7.70;;;;;;;-2.98;100.00;99235.53;5064403;28;20211;-72
2022/12/09 02:45:24;;;;;;;9.00;8.10;;;;;;;-3.04;100.00;99226.88;5056959;28;20195;-73
2022/12/09 02:47:52;;;;;;;9.17;8.17;;;;;;;-3.09;100.00;99225.06;5056892;28;20746;-74
2022/12/09 02:50:22;;;;;;;8.73;7.83;;;;;;;-3.11;100.00;99218.25;5059974;28;20201;-73
2022/12/09 02:52:51;;;;;;;8.70;7.87;;;;;;;-3.16;100.00;99207.13;5061864;28;20750;-73
2022/12/09 02:55:19;;;;;;;9.60;8.47;;;;;;;-3.20;100.00;99205.34;5054625;28;20197;-74
2022/12/09 02:57:49;;;;;;;8.97;7.93;;;;;;;-3.23;100.00;99213.69;5057704;28;20217;-73
2022/12/09 03:00:15;;;;;;;9.13;7.90;;;;;;;-3.24;100.00;99204.38;5070975;28;20214;-73
2022/12/09 03:02:44;;;;;;;9.37;8.03;;;;;;;-3.25;100.00;99195.06;5059480;28;20225;-73
2022/12/09 03:05:42;;;;;;;9.33;8.37;;;;;;;-3.26;100.00;99191.69;5080842;28;20198;-72
2022/12/09 03:08:13;;;;;;;9.20;8.17;;;;;;;-3.27;100.00;99194.19;5056475;28;20634;-73
2022/12/09 03:10:44;;;;;;;8.90;8.00;;;;;;;-3.29;100.00;99185.69;5065844;28;20225;-74
2022/12/09 03:13:38;;;;;;;9.20;8.13;;;;;;;-3.34;100.00;99188.09;5079220;28;20209;-73
2022/12/09 03:16:27;;;;;;;10.10;7.97;;;;;;;-3.33;100.00;99188.94;5059939;28;20647;-73
2022/12/09 03:19:05;;;;;;;9.20;8.27;;;;;;;-3.31;100.00;99190.69;5071276;28;20201;-72
2022/12/09 03:21:34;;;;;;;9.17;8.20;;;;;;;-3.33;100.00;99194.00;5071205;28;20269;-73
2022/12/09 03:24:01;;;;;;;8.90;8.00;;;;;;;-3.39;100.00;99185.41;5064331;28;20286;-74
2022/12/09 03:26:30;;;;;;;8.87;7.97;;;;;;;-3.41;100.00;99189.59;5070181;28;20429;-73
2022/12/09 03:28:59;;;;;;;8.47;7.57;;;;;;;-3.45;100.00;99185.25;5065476;28;22238;-73
2022/12/09 03:31:28;;;;;;;8.23;7.43;;;;;;;-3.47;100.00;99179.28;5064809;28;20223;-74
2022/12/09 03:33:57;;;;;;;7.93;7.13;;;;;;;-3.47;100.00;99164.09;5057583;28;20182;-74
2022/12/09 03:36:25;;;;;;;8.70;7.80;;;;;;;-3.50;100.00;99171.59;5068490;28;20280;-73
2022/12/09 03:38:52;;;;;;;8.00;7.20;;;;;;;-3.53;100.00;99171.50;5066992;28;20181;-74
2022/12/09 03:41:26;;;;;;;8.80;7.67;;;;;;;-3.58;100.00;99165.47;5059192;28;20208;-73
2022/12/09 03:43:56;;;;;;;7.87;7.00;;;;;;;-3.62;100.00;99169.56;5076374;28;20213;-72
2022/12/09 03:46:22;;;;;;;8.67;7.70;;;;;;;-3.64;100.00;99168.69;5062036;28;20190;-73
2022/12/09 03:48:48;;;;;;;8.53;7.53;;;;;;;-3.65;100.00;99172.03;5061370;28;20265;-73
2022/12/09 03:51:20;;;;;;;8.33;7.53;;;;;;;-3.67;100.00;99166.06;5065138;28;20631;-74
2022/12/09 03:53:54;;;;;;;7.83;7.03;;;;;;;-3.68;100.00;99171.91;5060697;28;20241;-73
2022/12/09 03:56:27;;;;;;;7.97;6.87;;;;;;;-3.68;100.00;99176.97;5055126;28;20217;-73
2022/12/09 03:58:55;;;;;;;8.53;7.20;;;;;;;-3.69;100.00;99177.78;5061893;28;20743;-73
2022/12/09 04:01:24;;;;;;;9.00;7.40;;;;;;;-3.70;100.00;99166.78;5060182;28;20740;-72
2022/12/09 04:03:52;;;;;;;7.83;7.03;;;;;;;-3.70;100.00;99169.31;5054427;28;20265;-73
2022/12/09 04:06:17;;;;;;;7.77;6.97;;;;;;;-3.69;100.00;99162.63;5041869;28;20259;-73
2022/12/09 04:08:43;;;;;;;8.77;7.83;;;;;;;-3.67;100.00;99156.78;5050767;28;20292;-73
2022/12/09 04:11:08;;;;;;;8.03;7.23;;;;;;;-3.63;100.00;99151.81;5059767;28;20190;-72
2022/12/09 04:13:34;;;;;;;7.77;6.97;;;;;;;-3.61;100.00;99151.03;5060532;28;20568;-73
2022/12/09 04:15:59;;;;;;;8.00;7.20;;;;;;;-3.57;100.00;99157.06;5062562;28;20189;-72
2022/12/09 04:18:24;;;;;;;8.37;7.30;;;;;;;-3.57;100.00;99141.91;5060253;28;20187;-73
2022/12/09 04:20:50;;;;;;;9.53;8.03;;;;;;;-3.58;100.00;99148.63;5062119;28;20717;-73
2022/12/09 04:23:15;;;;;;;9.13;7.53;;;;;;;-3.59;100.00;99143.53;5073412;28;21229;-72
2022/12/09 04:25:40;;;;;;;9.53;7.93;;;;;;;-3.60;100.00;99137.59;5053653;28;20268;-73
2022/12/09 04:28:06;;;;;;;10.83;8.97;;;;;;;-3.57;100.00;99131.78;5067777;28;20253;-73
2022/12/09 04:30:31;;;;;;;10.03;8.70;;;;;;;-3.58;100.00;99127.53;5075800;28;20851;-73
2022/12/09 04:32:58;;;;;;;9.17;7.80;;;;;;;-3.56;100.00;99126.75;5055013;28;20653;-72
2022/12/09 04:35:23;;;;;;;8.33;7.33;;;;;;;-3.52;100.00;99126.03;5063546;28;20190;-73
2022/12/09 04:37:49;;;;;;;8.53;6.60;;;;;;;-3.41;100.00;99112.84;5060425;28;20612;-73
2022/12/09 04:40:14;;;;;;;7.20;6.30;;;;;;;-3.30;100.00;99108.94;5060234;28;20204;-73
2022/12/09 04:42:39;;;;;;;8.33;5.50;;;;;;;-3.17;100.00;99105.06;5044401;28;20256;-73
2022/12/09 04:45:05;;;;;;;7.10;5.50;;;;;;;-3.10;100.00;99086.69;5080638;28;20220;-74
2022/12/09 04:47:32;;;;;;;5.93;5.40;;;;;;;-3.02;100.00;99091.09;5093018;28;20238;-74
2022/12/09 04:49:57;;;;;;;6.23;4.90;;;;;;;-2.96;100.00;99091.28;5075330;28;20219;-73
2022/12/09 04:52:23;;;;;;;5.73;5.13;;;;;;;-2.85;100.00;99086.47;5054586;28;20229;-74
2022/12/09 04:54:49;;;;;;;5.43;4.93;;;;;;;-2.77;100.00;99080.78;5050425;28;20949;-73
2022/12/09 04:57:15;;;;;;;6.10;5.53;;;;;;;-2.68;100.00;99092.81;5004163;28;1245017;-74
2022/12/09 04:59:40;;;;;;;6.03;5.43;;;;;;;-2.61;100.00;99086.25;5070725;28;20435;-72
2022/12/09 05:02:06;;;;;;;6.47;5.23;;;;;;;-2.52;100.00;99076.34;5085301;28;20250;-73
2022/12/09 05:04:31;;;;;;;6.80;5.20;;;;;;;-2.48;100.00;99079.81;5066270;28;20187;-73
2022/12/09 05:06:56;;;;;;;6.30;5.10;;;;;;;-2.46;100.00;99079.00;5067037;28;20193;-72
2022/12/09 05:09:21;;;;;;;6.03;4.57;;;;;;;-2.38;100.00;99079.19;5067503;28;20202;-73
2022/12/09 05:11:47;;;;;;;5.20;4.70;;;;;;;-2.32;100.00;99073.41;5065312;28;20238;-75
2022/12/09 05:14:13;;;;;;;5.07;4.13;;;;;;;-2.28;100.00;99074.34;5092041;28;20219;-73
2022/12/09 05:16:38;;;;;;;7.53;4.90;;;;;;;-2.26;100.00;99072.69;5084143;28;20200;-74
2022/12/09 05:19:03;;;;;;;6.40;5.13;;;;;;;-2.28;100.00;99064.22;5059322;28;20187;-73
2022/12/09 05:21:29;;;;;;;6.27;4.87;;;;;;;-2.28;100.00;99062.53;5039257;28;20182;-72
2022/12/09 05:23:54;;;;;;;5.60;5.10;;;;;;;-2.23;100.00;99060.97;5058483;28;20222;-73
2022/12/09 05:26:21;;;;;;;5.00;4.50;;;;;;;-2.25;100.00;99060.06;5047885;28;20702;-72
2022/12/09 05:28:47;;;;;;;5.00;4.50;;;;;;;-2.20;100.00;99066.13;5058325;28;20215;-73
2022/12/09 05:31:16;;;;;;;5.90;4.83;;;;;;;-2.19;100.00;99059.34;5060478;28;20626;-74
2022/12/09 05:33:42;;;;;;;5.57;5.00;;;;;;;-2.17;100.00;99062.78;5037852;28;20205;-72
2022/12/09 05:36:12;;;;;;;6.03;4.40;;;;;;;-2.13;100.00;99063.69;5056428;28;20363;-73
2022/12/09 05:38:38;;;;;;;6.10;4.57;;;;;;;-2.18;100.00;99066.97;5068425;28;20190;-73
2022/12/09 05:41:04;;;;;;;5.20;4.63;;;;;;;-2.13;100.00;99073.84;5067172;28;20182;-74
2022/12/09 05:43:31;;;;;;;4.37;3.97;;;;;;;-2.10;100.00;99067.16;5055398;28;20204;-73
2022/12/09 05:45:56;;;;;;;4.73;4.33;;;;;;;-2.10;100.00;99063.78;5059709;28;20187;-72
2022/12/09 05:48:21;;;;;;;5.43;4.10;;;;;;;-2.02;100.00;99067.31;5060933;28;20216;-73
2022/12/09 05:51:01;;;;;;;4.20;3.80;;;;;;;-2.01;100.00;99064.84;5058458;28;21429;-73
2022/12/09 05:53:28;;;;;;;5.67;4.20;;;;;;;-1.96;100.00;99062.41;5061933;28;20210;-73
2022/12/09 05:55:53;;;;;;;4.90;4.40;;;;;;;-1.96;100.00;99064.94;5079618;28;20183;-74
2022/12/09 05:58:19;;;;;;;4.83;4.33;;;;;;;-1.96;100.00;99062.41;5065585;28;20857;-74
2022/12/09 06:00:44;;;;;;;4.50;4.10;;;;;;;-1.97;100.00;99053.06;5059332;28;20189;-73
2022/12/09 06:03:09;;;;;;;4.57;4.13;;;;;;;-1.96;100.00;99051.38;5077750;28;20627;-74
2022/12/09 06:05:36;;;;;;;5.03;4.27;;;;;;;-1.98;100.00;99043.75;5062464;28;20199;-74
2022/12/09 06:08:02;;;;;;;5.77;4.70;;;;;;;-1.90;100.00;99049.00;5045361;28;20217;-73
2022/12/09 06:10:27;;;;;;;4.90;4.40;;;;;;;-1.84;100.00;99051.66;5055106;28;20191;-73
2022/12/09 06:12:54;;;;;;;5.23;4.10;;;;;;;-1.77;100.00;99048.41;5066027;28;20240;-72
2022/12/09 06:15:19;;;;;;;4.00;3.60;;;;;;;-1.67;100.00;99041.03;5067745;28;20236;-73
2022/12/09 06:17:44;;;;;;;4.83;4.23;;;;;;;-1.63;100.00;99047.84;5055682;28;20678;-73
2022/12/09 06:20:10;;;;;;;4.97;4.10;;;;;;;-1.58;100.00;99053.88;5062455;28;20246;-73
2022/12/09 06:22:35;;;;;;;6.43;5.07;;;;;;;-1.51;100.00;99053.16;5063905;28;20216;-73
2022/12/09 06:25:01;;;;;;;5.53;4.87;;;;;;;-1.47;100.00;99060.00;5076841;28;20193;-73
2022/12/09 06:27:26;;;;;;;9.43;4.87;;;;;;;-1.44;100.00;99056.69;5073834;28;20184;-72
2022/12/09 06:29:51;;;;;;;6.03;5.17;;;;;;;-1.36;100.00;99052.63;5069219;28;20179;-73
2022/12/09 06:32:16;;;;;;;5.80;5.10;;;;;;;-1.32;100.00;99039.16;5065046;28;20226;-73
2022/12/09 06:34:42;;;;;;;6.77;5.40;;;;;;;-1.30;100.00;99047.66;5064353;28;20688;-72
2022/12/09 06:37:07;;;;;;;6.03;5.47;;;;;;;-1.30;100.00;99052.75;5057115;28;20184;-73
2022/12/09 06:39:32;;;;;;;6.77;5.63;;;;;;;-1.28;100.00;99040.06;5055854;28;20194;-73
2022/12/09 06:41:58;;;;;;;6.27;5.47;;;;;;;-1.33;100.00;99045.06;5056889;28;20207;-75
2022/12/09 06:44:23;;;;;;;7.07;6.00;;;;;;;-1.33;100.00;99055.22;5058881;28;20668;-74
2022/12/09 06:46:49;;;;;;;6.50;5.90;;;;;;;-1.34;100.00;99050.09;5053534;28;20203;-73
2022/12/09 06:49:14;;;;;;;6.43;5.80;;;;;;;-1.35;100.00;99049.25;5059011;28;20295;-73
2022/12/09 06:51:39;;;;;;;6.70;6.00;;;;;;;-1.34;100.00;99050.97;5064413;28;20198;-73
2022/12/09 06:54:05;;;;;;;7.17;5.77;;;;;;;-1.29;100.00;99061.19;5042402;28;20188;-74
2022/12/09 06:56:31;;;;;;;7.00;6.30;;;;;;;-1.29;100.00;99051.91;5059359;28;20704;-73
2022/12/09 06:58:56;;;;;;;8.43;7.00;;;;;;;-1.23;100.00;99054.56;5055660;28;20194;-75
2022/12/09 07:01:23;;;;;;;10.80;8.70;;;;;;;-1.25;100.00;99048.59;5056494;28;20193;-75
2022/12/09 07:03:52;;;;;;;9.00;7.20;;;;;;;-1.25;100.00;99046.06;5087293;28;20193;-75
2022/12/09 07:06:21;;;;;;;7.43;6.63;;;;;;;-1.27;100.00;99040.09;5094443;28;20162;-74
2022/12/09 07:08:46;;;;;;;7.73;6.13;;;;;;;-1.26;100.00;99046.03;5064439;28;20329;-72
2022/12/09 07:11:12;;;;;;;6.27;5.67;;;;;;;-1.29;100.00;99043.44;5060722;28;20661;-73
2022/12/09 07:13:37;;;;;;;7.70;5.80;;;;;;;-1.27;100.00;99036.72;5067781;28;20262;-73
2022/12/09 07:16:03;;;;;;;7.27;6.57;;;;;;;-1.27;100.00;99031.63;5067035;28;20184;-73
2022/12/09 07:18:28;;;;;;;8.27;6.47;;;;;;;-1.25;100.00;99040.97;5049662;28;20180;-73
2022/12/09 07:20:53;;;;;;;7.10;6.40;;;;;;;-1.27;100.00;99035.00;5052213;28;20570;-73
2022/12/09 07:23:19;;;;;;;8.53;7.00;;;;;;;-1.26;100.00;99036.72;5050610;28;20255;-73
2022/12/09 07:25:55;;;;;;;7.90;7.13;;;;;;;-1.25;100.00;99035.91;5047568;28;20187;-72
2022/12/09 07:28:20;;;;;;;8.67;7.77;;;;;;;-1.27;100.00;99045.16;5047628;28;20238;-74
2022/12/09 07:30:45;;;;;;;9.40;8.40;;;;;;;-1.31;100.00;99030.72;5062418;28;20270;-73
2022/12/09 07:33:10;;;;;;;9.60;8.07;;;;;;;-1.35;100.00;99044.19;5059302;28;20213;-73
2022/12/09 07:35:36;;;;;;;8.87;7.97;;;;;;;-1.36;100.00;99039.94;5072442;28;20191;-72
2022/12/09 07:38:01;;;;;;;8.47;7.27;;;;;;;-1.35;100.00;99036.56;5059402;28;20187;-74
2022/12/09 07:40:26;;;;;;;9.23;8.33;;;;;;;-1.33;100.00;99045.06;5050330;28;20190;-74
2022/12/09 07:42:51;;;;;;;9.00;7.83;;;;;;;-1.29;100.00;99049.38;5065974;28;20247;-73
2022/12/09 07:45:17;;;;;;;9.23;8.23;;;;;;;-1.28;100.00;99045.16;5078792;28;20476;-73
2022/12/09 07:47:42;;;;;;;8.93;8.03;;;;;;;-1.27;100.00;99049.41;5062882;28;20220;-74
2022/12/09 07:50:08;;;;;;;9.43;8.50;;;;;;;-1.26;100.00;99044.34;5069599;28;20188;-73
2022/12/09 07:52:33;;;;;;;10.07;9.00;;;;;;;-1.26;100.00;99039.25;5073837;28;20247;-73
2022/12/09 07:55:00;;;;;;;10.13;9.10;;;;;;;-1.21;100.00;99046.13;5076354;28;20174;-73
2022/12/09 07:57:26;;;;;;;11.70;9.63;;;;;;;-1.19;100.00;99039.38;5072158;28;20201;-73
2022/12/09 07:59:52;;;;;;;10.33;9.30;;;;;;;-1.16;100.00;99036.91;5070309;28;20238;-74
2022/12/09 08:02:17;;;;;;;11.00;9.13;;;;;;;-1.14;100.00;99035.25;5074529;28;20211;-73
2022/12/09 08:04:42;;;;;;;10.17;9.20;;;;;;;-1.10;100.00;99048.03;5071465;28;20270;-73
2022/12/09 08:07:08;;;;;;;10.63;9.60;;;;;;;-1.08;100.00;99046.38;5079529;28;20189;-75
2022/12/09 08:09:33;;;;;;;9.93;8.90;;;;;;;-1.09;100.00;99041.25;5075413;28;20299;-74
2022/12/09 08:11:58;;;;;;;13.07;9.80;;;;;;;-1.05;100.00;99048.09;5076169;28;20309;-73
2022/12/09 08:14:24;;;;;;;10.83;9.50;;;;;;;-1.00;100.00;99046.50;5078127;28;20229;-74
2022/12/09 08:16:49;;;;;;;12.47;10.67;;;;;;;-0.97;100.00;99044.00;5075851;28;20310;-72
2022/12/09 08:19:14;;;;;;;10.43;9.43;;;;;;;-0.94;100.00;99046.59;5076570;28;20180;-74
2022/12/09 08:21:40;;;;;;;11.03;9.93;;;;;;;-0.91;100.00;99040.75;5073002;28;20186;-73
2022/12/09 08:24:06;;;;;;;10.70;9.47;;;;;;;-0.84;100.00;99037.47;5074399;28;20723;-73
2022/12/09 08:26:32;;;;;;;9.93;8.93;;;;;;;-0.75;100.00;99038.44;5073566;28;20187;-73
2022/12/09 08:28:58;;;;;;;10.83;9.77;;;;;;;-0.64;100.00;99040.31;5078656;28;20752;-74
2022/12/09 08:31:25;;;;;;;10.60;9.57;;;;;;;-0.54;100.00;99036.25;5066106;28;20182;-73
2022/12/09 08:33:51;;;;;;;10.53;9.43;;;;;;;-0.38;100.00;99032.25;5082275;28;20195;-72
2022/12/09 08:36:19;;;;;;;10.10;9.10;;;;;;;-0.25;100.00;99030.75;5062854;28;20184;-73
2022/12/09 08:38:45;;;;;;;11.37;10.00;;;;;;;-0.19;100.00;99025.75;5065565;28;20216;-73
2022/12/09 08:41:20;;;;;;;10.93;9.73;;;;;;;-0.07;100.00;99026.75;5067183;28;20417;-73
2022/12/09 08:43:45;;;;;;;13.60;9.17;;;;;;;0.01;100.00;99022.63;5065556;28;20208;-74
2022/12/09 08:46:11;;;;;;;12.53;9.77;;;;;;;0.12;100.00;99017.69;5064805;28;20193;-73
2022/12/09 08:48:39;;;;;;;13.97;12.53;;;;;;;0.19;100.00;99022.03;5059069;28;20220;-74
2022/12/09 08:51:05;;;;;;;12.70;11.00;;;;;;;0.21;100.00;99017.81;5056145;28;20188;-73
2022/12/09 08:53:31;;;;;;;12.27;10.97;;;;;;;0.25;100.00;99011.91;5062743;28;20207;-74
2022/12/09 08:55:56;;;;;;;12.07;10.70;;;;;;;0.28;100.00;99021.28;5065126;28;20564;-73
2022/12/09 08:58:22;;;;;;;10.97;9.83;;;;;;;0.36;100.00;99012.03;5051178;28;20189;-74
2022/12/09 09:00:47;;;;;;;11.57;9.33;;;;;;;0.43;100.00;99021.47;5056212;28;20568;-74
2022/12/09 09:03:12;;;;;;;11.60;10.40;;;;;;;0.51;100.00;99013.06;5058091;28;20212;-74
2022/12/09 09:05:38;;;;;;;13.93;10.60;;;;;;;0.60;100.00;99015.72;5080939;28;20185;-74
2022/12/09 09:08:03;;;;;;;12.73;11.20;;;;;;;0.65;100.00;99013.22;5058912;28;20824;-74
2022/12/09 09:10:29;;;;;;;11.40;10.30;;;;;;;0.61;100.00;99002.13;5058238;28;20207;-75
2022/12/09 09:12:54;;;;;;;16.07;11.93;;;;;;;0.66;100.00;99017.47;5057390;28;20206;-74
2022/12/09 09:15:20;;;;;;;13.27;11.27;;;;;;;0.67;100.00;99014.94;5059095;28;20188;-74
2022/12/09 09:17:46;;;;;;;10.60;9.50;;;;;;;0.73;100.00;99004.81;5060397;28;20186;-74
2022/12/09 09:20:11;;;;;;;11.40;10.30;;;;;;;0.76;100.00;99009.91;5058132;28;20182;-76
2022/12/09 09:22:37;;;;;;;13.80;12.40;;;;;;;0.84;100.00;99004.91;5052660;28;20215;-75
2022/12/09 09:25:02;;;;;;;19.00;16.30;;;;;;;0.83;100.00;99005.72;5089730;28;20232;-76
2022/12/09 09:27:27;;;;;;;16.03;14.10;;;;;;;0.86;100.00;99000.69;5083081;28;20238;-73
2022/12/09 09:29:53;;;;;;;19.93;14.37;;;;;;;0.88;100.00;98998.16;5043325;28;20213;-75
2022/12/09 09:32:18;;;;;;;14.13;11.03;;;;;;;0.91;100.00;98993.06;5053978;28;20202;-74
2022/12/09 09:34:44;;;;;;;13.53;12.13;;;;;;;0.93;100.00;98993.94;5050856;28;20190;-74
2022/12/09 09:37:10;;;;;;;14.27;12.77;;;;;;;0.94;100.00;98982.09;5031574;28;20185;-73
2022/12/09 09:39:35;;;;;;;14.30;12.43;;;;;;;0.94;100.00;98975.28;5061409;28;20764;-74
2022/12/09 09:42:03;;;;;;;13.23;11.87;;;;;;;0.93;100.00;98991.41;5064644;28;20210;-73
2022/12/09 09:44:43;;;;;;;13.53;12.17;;;;;;;1.02;100.00;98988.94;5051559;28;20190;-74
2022/12/09 09:47:18;;;;;;;14.47;13.03;;;;;;;1.03;100.00;98985.56;5053232;28;20225;-75
2022/12/09 09:49:51;;;;;;;15.03;13.17;;;;;;;1.03;100.00;98985.56;5050770;28;20216;-74
2022/12/09 09:52:23;;;;;;;14.60;12.97;;;;;;;1.03;100.00;98979.59;5053489;28;20220;-75
2022/12/09 09:54:49;;;;;;;16.83;14.83;;;;;;;1.06;100.00;98980.47;5044783;28;20187;-74
2022/12/09 09:57:24;;;;;;;14.90;13.40;;;;;;;1.09;100.00;98977.13;5057817;28;20313;-73
2022/12/09 10:00:14;;;;;;;13.60;12.30;;;;;;;1.08;100.00;98983.06;5058140;28;20660;-73
2022/12/09 10:03:05;;;;;;;13.53;12.00;;;;;;;0.97;100.00;98988.03;5050036;28;20234;-74
2022/12/09 10:05:34;;;;;;;12.30;11.17;;;;;;;0.91;100.00;98981.22;5034874;28;20307;-74
2022/12/09 10:08:18;;;;;;;13.33;11.90;;;;;;;0.88;100.00;98990.53;5040634;28;20295;-73
2022/12/09 10:11:19;;;;;;;13.07;11.67;;;;;;;0.88;100.00;98976.06;5059011;28;20197;-74
2022/12/09 10:13:53;;;;;;;14.10;11.40;;;;;;;0.93;100.00;98975.28;5057568;28;20207;-73
2022/12/09 10:16:52;;;;;;;14.63;11.43;;;;;;;0.88;100.00;98981.16;5052646;28;20186;-75
2022/12/09 10:19:41;;;;;;;12.77;11.57;;;;;;;0.85;100.00;98968.41;5058032;28;20197;-75
2022/12/09 10:22:20;;;;;;;12.70;11.30;;;;;;;0.84;100.00;98974.34;5060769;28;20209;-73
2022/12/09 10:24:49;;;;;;;14.30;12.53;;;;;;;0.79;100.00;98977.69;5057390;28;20204;-76
2022/12/09 10:27:36;;;;;;;12.47;11.17;;;;;;;0.78;100.00;98969.19;5056153;28;20199;-74
2022/12/09 10:30:15;;;;;;;17.30;12.30;;;;;;;0.80;100.00;98957.34;5055975;28;20547;-74
2022/12/09 10:32:41;;;;;;;14.70;11.67;;;;;;;0.86;100.00;98962.47;5052266;28;20574;-74
2022/12/09 10:35:14;;;;;;;14.23;12.57;;;;;;;0.98;100.00;98971.94;5051881;28;20571;-73
2022/12/09 10:37:39;;;;;;;12.73;11.43;;;;;;;1.13;100.00;98962.69;5056889;28;20844;-74
2022/12/09 10:40:11;;;;;;;13.40;12.00;;;;;;;1.18;100.00;98958.50;5052070;28;20190;-74
2022/12/09 10:45:29;;;;;;;12.57;11.37;;;;;;;1.31;100.00;98956.88;5060877;28;20261;-75
2022/12/09 10:47:54;;;;;;;13.27;11.70;;;;;;;1.31;100.00;98951.78;5061490;28;20210;-74
2022/12/09 10:50:32;;;;;;;13.60;12.30;;;;;;;1.43;100.00;98951.88;5045984;28;20571;-74
2022/12/09 10:53:05;;;;;;;13.63;11.83;;;;;;;1.45;100.00;98932.31;5051310;28;20214;-74
2022/12/09 10:55:35;;;;;;;13.60;12.20;;;;;;;1.53;100.00;98934.91;5054411;28;20198;-74
2022/12/09 10:58:19;;;;;;;13.40;12.00;;;;;;;1.60;99.79;98930.72;5059905;28;21071;-74
2022/12/09 11:01:01;;;;;;;13.47;12.17;;;;;;;1.66;99.27;98931.59;5059515;28;20661;-74
2022/12/09 11:03:33;;;;;;;13.23;11.27;;;;;;;1.73;99.30;98932.50;5060440;28;20733;-74
2022/12/09 11:06:02;;;;;;;13.57;12.07;;;;;;;1.86;99.00;98943.59;5048807;28;20186;-74
2022/12/09 11:08:29;;;;;;;13.40;11.73;;;;;;;1.76;97.94;98929.09;5059426;28;20682;-75
2022/12/09 11:10:55;;;;;;;13.47;12.07;;;;;;;1.81;98.43;98935.09;5062723;28;20208;-74
2022/12/09 11:13:27;;;;;;;12.90;11.70;;;;;;;1.81;97.88;98937.66;5057535;28;20214;-74
2022/12/09 11:15:53;;;;;;;13.60;12.30;;;;;;;1.78;97.85;98933.34;5059731;28;20201;-73
2022/12/09 11:18:21;;;;;;;13.40;11.90;;;;;;;1.82;97.51;98924.88;5070451;28;20185;-74
2022/12/09 11:20:59;;;;;;;13.97;12.57;;;;;;;1.87;97.76;98924.91;5050473;28;20198;-74
2022/12/09 11:23:25;;;;;;;13.27;11.97;;;;;;;1.95;97.19;98915.59;5053469;28;20306;-75
2022/12/09 11:25:56;;;;;;;13.50;12.07;;;;;;;2.05;97.57;98916.44;5055293;28;20198;-74
2022/12/09 11:28:36;;;;;;;12.97;11.60;;;;;;;2.06;96.99;98913.06;5056689;28;20202;-77
2022/12/09 11:31:06;;;;;;;13.30;12.00;;;;;;;2.13;96.23;98914.78;5063883;28;20567;-74